createdAt,value
2023-01-20T00:02:09.000Z,101214.38
2023-01-20T00:04:37.008Z,101213.38
2023-01-20T00:07:05.090Z,101211.47
2023-01-20T00:09:34.624Z,101223.28
2023-01-20T00:12:02.622Z,101213.78
2023-01-20T00:14:30.820Z,101221.84
2023-01-20T00:17:00.163Z,101226.19
2023-01-20T00:19:28.377Z,101229.81
2023-01-20T00:21:56.239Z,101227.47
2023-01-20T00:24:24.288Z,101221.53
2023-01-20T00:26:53.654Z,101227.63
2023-01-20T00:29:21.579Z,101231.16
2023-01-20T00:31:49.504Z,101230.09
2023-01-20T00:34:17.461Z,101229.09
2023-01-20T00:36:45.413Z,101235.09
2023-01-20T00:39:13.470Z,101230.66
2023-01-20T00:41:41.511Z,101240.22
2023-01-20T00:44:11.064Z,101240.22
2023-01-20T00:46:39.209Z,101240.22
2023-01-20T00:49:07.315Z,101246.38
2023-01-20T00:51:35.226Z,101246.47
2023-01-20T00:54:03.163Z,101251.88
2023-01-20T00:56:31.225Z,101260.84
2023-01-20T00:58:59.257Z,101255.88
2023-01-20T01:01:28.649Z,101258.94
2023-01-20T01:03:56.619Z,101265.41
2023-01-20T01:06:24.655Z,101262.31
2023-01-20T01:08:53.100Z,101269.75
2023-01-20T01:11:21.068Z,101274.66
2023-01-20T01:13:49.023Z,101264.72
2023-01-20T01:16:17.566Z,101271.16
2023-01-20T01:18:46.973Z,101270.84
2023-01-20T01:21:20.188Z,101264.22
2023-01-20T01:23:48.226Z,101271.47
2023-01-20T01:26:16.543Z,101273.56
2023-01-20T01:28:44.891Z,101280.88
2023-01-20T01:31:12.856Z,101276.66
2023-01-20T01:33:40.798Z,101268.94
2023-01-20T01:36:14.042Z,101276.34
2023-01-20T01:38:42.427Z,101278.50
2023-01-20T01:41:12.843Z,101283.38
2023-01-20T01:43:41.573Z,101285.59
2023-01-20T01:46:09.547Z,101286.84
2023-01-20T01:48:41.237Z,101288.06
2023-01-20T01:51:14.603Z,101290.84
2023-01-20T01:53:47.888Z,101299.88
2023-01-20T01:56:17.237Z,101304.50
2023-01-20T01:58:49.920Z,101300.28
2023-01-20T02:01:18.334Z,101300.44
2023-01-20T02:03:53.517Z,101303.09
2023-01-20T02:06:25.803Z,101311.94
2023-01-20T02:08:54.162Z,101309.25
2023-01-20T02:11:22.563Z,101316.31
2023-01-20T02:13:50.602Z,101317.88
2023-01-20T02:16:24.012Z,101315.38
2023-01-20T02:19:06.321Z,101319.88
2023-01-20T02:22:15.438Z,101329.56
2023-01-20T02:25:13.563Z,101329.75
2023-01-20T02:28:25.536Z,101327.97
2023-01-20T02:31:02.983Z,101332.41
2023-01-20T02:33:39.624Z,101335.69
2023-01-20T02:36:11.012Z,101329.34
2023-01-20T02:38:46.601Z,101328.19
2023-01-20T02:41:22.347Z,101335.84
2023-01-20T02:43:57.134Z,101334.63
2023-01-20T02:46:32.192Z,101327.19
2023-01-20T02:49:11.593Z,101326.03
2023-01-20T02:51:44.021Z,101330.41
2023-01-20T02:54:15.279Z,101334.78
2023-01-20T02:56:44.295Z,101333.03
2023-01-20T02:59:15.357Z,101334.91
2023-01-20T03:01:48.722Z,101339.22
2023-01-20T03:04:23.072Z,101345.22
2023-01-20T03:06:53.730Z,101344.22
2023-01-20T03:09:27.565Z,101347.66
2023-01-20T03:12:00.192Z,101338.00
2023-01-20T03:14:28.622Z,101344.06
2023-01-20T03:16:57.015Z,101346.66
2023-01-20T03:19:26.778Z,101342.13
2023-01-20T03:21:54.985Z,101351.53
2023-01-20T03:24:23.654Z,101347.97
2023-01-20T03:26:51.718Z,101344.34
2023-01-20T03:29:19.688Z,101356.75
2023-01-20T03:31:51.565Z,101359.53
2023-01-20T03:34:22.588Z,101360.59
2023-01-20T03:36:53.567Z,101348.59
2023-01-20T03:39:22.150Z,101355.13
2023-01-20T03:42:00.782Z,101357.97
2023-01-20T03:44:35.201Z,101366.97
2023-01-20T03:47:11.325Z,101359.09
2023-01-20T03:49:47.231Z,101359.16
2023-01-20T03:52:46.537Z,101367.19
2023-01-20T03:55:18.176Z,101358.44
2023-01-20T03:57:54.822Z,101362.88
2023-01-20T04:00:26.568Z,101365.59
2023-01-20T04:03:01.507Z,101375.41
2023-01-20T04:05:30.906Z,101367.59
2023-01-20T04:08:05.158Z,101368.66
2023-01-20T04:10:36.582Z,101371.44
2023-01-20T04:13:04.811Z,101363.59
2023-01-20T04:15:35.676Z,101369.59
2023-01-20T04:18:14.619Z,101371.53
2023-01-20T04:20:43.406Z,101370.66
2023-01-20T04:23:18.935Z,101368.81
2023-01-20T04:25:47.228Z,101361.78
2023-01-20T04:28:15.248Z,101371.44
2023-01-20T04:30:43.370Z,101363.66
2023-01-20T04:33:14.190Z,101365.50
2023-01-20T04:35:42.269Z,101372.53
2023-01-20T04:38:10.628Z,101369.94
2023-01-20T04:40:40.096Z,101372.75
2023-01-20T04:43:10.151Z,101378.72
2023-01-20T04:45:38.152Z,101386.53
2023-01-20T04:48:08.476Z,101397.13
2023-01-20T04:50:39.728Z,101392.84
2023-01-20T04:53:08.497Z,101388.53
2023-01-20T04:55:36.499Z,101388.53
2023-01-20T04:58:05.927Z,101391.25
2023-01-20T05:00:33.883Z,101392.78
2023-01-20T05:03:02.654Z,101391.72
2023-01-20T05:05:30.790Z,101406.28
2023-01-20T05:07:59.768Z,101412.19
2023-01-20T05:10:27.740Z,101411.13
2023-01-20T05:12:55.842Z,101413.63
2023-01-20T05:15:25.298Z,101413.63
2023-01-20T05:17:53.409Z,101408.47
2023-01-20T05:20:22.100Z,101409.53
2023-01-20T05:22:50.036Z,101405.31
2023-01-20T05:25:18.254Z,101406.44
2023-01-20T05:27:46.325Z,101412.72
2023-01-20T05:30:15.181Z,101413.59
2023-01-20T05:32:47.465Z,101411.59
2023-01-20T05:35:15.929Z,101414.88
2023-01-20T05:37:44.200Z,101421.72
2023-01-20T05:40:13.296Z,101416.22
2023-01-20T05:42:41.366Z,101413.50
2023-01-20T05:45:10.646Z,101421.34
2023-01-20T05:47:38.696Z,101425.66
2023-01-20T05:50:09.482Z,101431.91
2023-01-20T05:52:37.501Z,101428.34
2023-01-20T05:55:06.039Z,101429.25
2023-01-20T05:57:34.254Z,101429.38
2023-01-20T06:00:02.366Z,101421.50
2023-01-20T06:02:32.020Z,101426.06
2023-01-20T06:05:01.890Z,101429.66
2023-01-20T06:07:32.028Z,101428.94
2023-01-20T06:10:00.119Z,101428.00
2023-01-20T06:12:28.047Z,101434.16
2023-01-20T06:14:56.127Z,101429.00
2023-01-20T06:17:24.182Z,101428.19
2023-01-20T06:19:52.259Z,101436.13
2023-01-20T06:22:36.735Z,101443.22
2023-01-20T06:25:05.132Z,101439.66
2023-01-20T06:27:33.288Z,101446.81
2023-01-20T06:30:01.357Z,101441.63
2023-01-20T06:32:29.418Z,101450.59
2023-01-20T06:34:57.543Z,101453.25
2023-01-20T06:37:25.758Z,101456.94
2023-01-20T06:39:55.359Z,101461.50
2023-01-20T06:42:23.408Z,101470.44
2023-01-20T06:44:51.543Z,101463.56
2023-01-20T06:47:19.463Z,101468.91
2023-01-20T06:49:47.866Z,101465.59
2023-01-20T06:52:16.093Z,101464.91
2023-01-20T06:54:44.092Z,101464.06
2023-01-20T06:57:13.507Z,101466.88
2023-01-20T06:59:44.684Z,101461.50
2023-01-20T07:02:13.976Z,101465.78
2023-01-20T07:04:44.532Z,101472.75
2023-01-20T07:07:13.960Z,101483.22
2023-01-20T07:09:42.677Z,101485.88
2023-01-20T07:12:10.839Z,101480.69
2023-01-20T07:14:41.054Z,101485.97
2023-01-20T07:17:13.033Z,101492.22
2023-01-20T07:19:41.721Z,101490.41
2023-01-20T07:22:09.971Z,101497.31
2023-01-20T07:24:38.235Z,101500.81
2023-01-20T07:27:07.247Z,101499.94
2023-01-20T07:29:38.338Z,101498.28
2023-01-20T07:32:08.322Z,101496.75
2023-01-20T07:34:38.299Z,101494.31
2023-01-20T07:37:06.813Z,101488.34
2023-01-20T07:39:36.450Z,101495.53
2023-01-20T07:42:04.859Z,101494.75
2023-01-20T07:44:33.716Z,101506.44
2023-01-20T07:47:01.683Z,101506.63
2023-01-20T07:49:33.327Z,101510.19
2023-01-20T07:52:01.232Z,101517.31
2023-01-20T07:54:29.196Z,101509.53
2023-01-20T07:56:57.126Z,101507.00
2023-01-20T07:59:25.291Z,101510.56
2023-01-20T08:01:53.407Z,101522.06
2023-01-20T08:04:21.683Z,101526.44
2023-01-20T08:06:51.211Z,101527.22
2023-01-20T08:09:19.256Z,101534.03
2023-01-20T08:11:47.365Z,101537.50
2023-01-20T08:14:15.459Z,101549.66
2023-01-20T08:16:43.525Z,101536.56
2023-01-20T08:19:11.550Z,101543.63
2023-01-20T08:21:39.606Z,101556.78
2023-01-20T08:24:11.207Z,101558.66
2023-01-20T08:26:39.497Z,101554.31
2023-01-20T08:29:09.637Z,101552.78
2023-01-20T08:31:38.041Z,101547.69
2023-01-20T08:34:07.029Z,101560.84
2023-01-20T08:36:38.322Z,101559.97
2023-01-20T08:39:10.596Z,101565.22
2023-01-20T08:41:41.126Z,101559.81
2023-01-20T08:44:10.002Z,101573.84
2023-01-20T08:46:41.698Z,101574.50
2023-01-20T08:49:10.877Z,101568.91
2023-01-20T08:51:39.219Z,101580.94
2023-01-20T08:54:07.317Z,101586.91
2023-01-20T08:56:36.965Z,101591.16
2023-01-20T08:59:05.469Z,101592.59
2023-01-20T09:01:36.277Z,101586.22
2023-01-20T09:04:07.150Z,101591.25
2023-01-20T09:06:43.274Z,101592.09
2023-01-20T09:09:12.068Z,101594.56
2023-01-20T09:11:44.941Z,101601.56
2023-01-20T09:14:13.130Z,101596.16
2023-01-20T09:16:41.325Z,101594.41
2023-01-20T09:19:10.127Z,101597.88
2023-01-20T09:21:38.233Z,101597.75
2023-01-20T09:24:07.331Z,101592.19
2023-01-20T09:26:39.644Z,101600.66
2023-01-20T09:29:12.962Z,101599.56
2023-01-20T09:31:44.689Z,101602.88
2023-01-20T09:34:19.699Z,101598.44
2023-01-20T09:36:51.826Z,101606.22
2023-01-20T09:39:37.857Z,101599.00
2023-01-20T09:42:40.259Z,101596.28
2023-01-20T09:45:26.384Z,101611.13
2023-01-20T09:48:14.274Z,101616.22
2023-01-20T09:51:06.099Z,101614.31
2023-01-20T09:53:45.538Z,101616.69
2023-01-20T09:56:17.102Z,101610.13
2023-01-20T09:58:53.431Z,101618.63
2023-01-20T10:01:30.830Z,101618.13
2023-01-20T10:04:08.421Z,101622.06
2023-01-20T10:06:41.707Z,101634.84
2023-01-20T10:09:21.380Z,101631.03
2023-01-20T10:11:53.248Z,101623.53
2023-01-20T10:14:29.355Z,101636.44
2023-01-20T10:17:02.963Z,101640.59
2023-01-20T10:19:38.275Z,101634.22
2023-01-20T10:22:13.277Z,101640.31
2023-01-20T10:24:49.660Z,101642.59
2023-01-20T10:27:17.766Z,101643.09
2023-01-20T10:29:49.346Z,101656.84
2023-01-20T10:32:27.711Z,101654.75
2023-01-20T10:34:58.453Z,101654.25
2023-01-20T10:37:27.775Z,101649.59
2023-01-20T10:40:02.094Z,101650.00
2023-01-20T10:42:30.465Z,101645.38
2023-01-20T10:45:00.284Z,101646.00
2023-01-20T10:47:42.906Z,101662.16
2023-01-20T10:50:40.522Z,101657.41
2023-01-20T10:53:38.907Z,101661.56
2023-01-20T10:56:34.015Z,101659.38
2023-01-20T10:59:05.841Z,101657.16
2023-01-20T11:01:34.124Z,101662.97
2023-01-20T11:04:04.014Z,101658.97
2023-01-20T11:06:32.200Z,101656.84
2023-01-20T11:09:13.150Z,101656.38
2023-01-20T11:11:42.859Z,101659.56
2023-01-20T11:14:11.023Z,101659.25
2023-01-20T11:16:40.812Z,101657.22
2023-01-20T11:19:11.339Z,101656.00
2023-01-20T11:21:41.146Z,101657.47
2023-01-20T11:24:38.332Z,101662.56
2023-01-20T11:27:10.617Z,101659.66
2023-01-20T11:29:43.169Z,101656.66
2023-01-20T11:32:29.536Z,101660.78
2023-01-20T11:34:59.664Z,101652.38
2023-01-20T11:37:36.018Z,101663.44
2023-01-20T11:40:19.256Z,101660.28
2023-01-20T11:42:49.168Z,101659.88
2023-01-20T11:45:30.471Z,101659.50
2023-01-20T11:48:05.999Z,101652.31
2023-01-20T11:50:37.108Z,101662.41
2023-01-20T11:53:20.715Z,101653.16
2023-01-20T11:55:52.468Z,101655.50
2023-01-20T11:58:22.965Z,101653.34
2023-01-20T12:00:52.694Z,101654.69
2023-01-20T12:04:01.096Z,101652.63
2023-01-20T12:06:34.892Z,101662.91
2023-01-20T12:09:05.243Z,101658.13
2023-01-20T12:11:38.575Z,101673.56
2023-01-20T12:14:28.754Z,101667.94
2023-01-20T12:17:16.018Z,101662.44
2023-01-20T12:19:57.108Z,101668.44
2023-01-20T12:22:36.828Z,101665.41
2023-01-20T12:25:16.364Z,101662.31
2023-01-20T12:27:50.231Z,101670.78
2023-01-20T12:30:37.649Z,101659.94
2023-01-20T12:33:06.271Z,101669.28
2023-01-20T12:35:44.834Z,101667.19
2023-01-20T12:38:20.810Z,101665.09
2023-01-20T12:40:52.586Z,101655.97
2023-01-20T12:43:39.533Z,101663.69
2023-01-20T12:46:27.248Z,101666.91
2023-01-20T12:49:25.884Z,101671.03
2023-01-20T12:52:07.936Z,101665.41
2023-01-20T12:54:51.285Z,101670.28
2023-01-20T12:57:37.734Z,101674.38
2023-01-20T13:00:25.220Z,101665.84
2023-01-20T13:03:43.698Z,101662.03
2023-01-20T13:06:54.345Z,101665.50
2023-01-20T13:10:01.015Z,101667.88
2023-01-20T13:12:41.259Z,101673.78
2023-01-20T13:15:20.927Z,101669.91
2023-01-20T13:18:18.223Z,101674.09
2023-01-20T13:20:47.635Z,101668.53
2023-01-20T13:23:18.025Z,101677.03
2023-01-20T13:25:48.786Z,101680.16
2023-01-20T13:28:18.753Z,101673.44
2023-01-20T13:30:51.004Z,101669.63
2023-01-20T13:33:32.056Z,101670.09
2023-01-20T13:36:01.684Z,101665.19
2023-01-20T13:38:33.359Z,101672.06
2023-01-20T13:41:06.152Z,101674.00
2023-01-20T13:43:49.118Z,101677.47
2023-01-20T13:46:47.118Z,101682.88
2023-01-20T13:49:27.214Z,101681.19
2023-01-20T13:51:55.346Z,101687.63
2023-01-20T13:54:49.151Z,101677.16
2023-01-20T13:57:38.071Z,101672.00
2023-01-20T14:00:17.745Z,101670.78
2023-01-20T14:02:47.289Z,101670.09
2023-01-20T14:05:30.197Z,101672.66
2023-01-20T14:07:59.167Z,101681.72
2023-01-20T14:10:27.920Z,101684.84
2023-01-20T14:12:57.686Z,101690.31
2023-01-20T14:15:37.660Z,101684.22
2023-01-20T14:18:06.571Z,101687.44
2023-01-20T14:20:34.500Z,101687.44
2023-01-20T14:23:25.957Z,101693.44
2023-01-20T14:26:09.846Z,101690.13
2023-01-20T14:28:46.175Z,101695.63
2023-01-20T14:31:33.984Z,101706.97
2023-01-20T14:34:05.389Z,101694.09
2023-01-20T14:36:35.043Z,101702.44
2023-01-20T14:39:07.326Z,101700.84
2023-01-20T14:41:46.066Z,101705.94
2023-01-20T14:44:19.041Z,101711.84
2023-01-20T14:46:49.140Z,101717.75
2023-01-20T14:49:18.940Z,101721.78
2023-01-20T14:51:48.714Z,101724.13
2023-01-20T14:54:37.866Z,101724.16
2023-01-20T14:57:20.660Z,101737.13
2023-01-20T15:00:15.973Z,101729.53
2023-01-20T15:02:58.000Z,101731.00
2023-01-20T15:05:37.405Z,101736.53
2023-01-20T15:08:15.370Z,101734.88
2023-01-20T15:10:43.900Z,101737.75
2023-01-20T15:13:24.285Z,101739.72
2023-01-20T15:15:53.843Z,101749.78
2023-01-20T15:18:24.551Z,101749.03
2023-01-20T15:21:06.717Z,101749.75
2023-01-20T15:23:45.827Z,101744.78
2023-01-20T15:26:26.653Z,101747.13
2023-01-20T15:28:55.284Z,101734.22
2023-01-20T15:31:25.157Z,101749.09
2023-01-20T15:33:53.337Z,101742.41
2023-01-20T15:36:27.992Z,101749.41
2023-01-20T15:38:56.837Z,101764.31
2023-01-20T15:41:25.283Z,101762.03
2023-01-20T15:43:53.231Z,101757.41
2023-01-20T15:46:21.335Z,101756.78
2023-01-20T15:48:50.738Z,101759.34
2023-01-20T15:51:20.780Z,101772.00
2023-01-20T15:53:48.993Z,101769.00
2023-01-20T15:56:21.704Z,101771.34
2023-01-20T15:58:50.299Z,101768.09
2023-01-20T16:01:20.715Z,101774.47
2023-01-20T16:03:51.560Z,101783.13
2023-01-20T16:06:21.911Z,101787.97
2023-01-20T16:08:51.271Z,101796.78
2023-01-20T16:11:20.625Z,101788.59
2023-01-20T16:13:49.306Z,101792.88
2023-01-20T16:16:19.479Z,101799.72
2023-01-20T16:18:48.335Z,101810.88
2023-01-20T16:21:19.858Z,101809.50
2023-01-20T16:23:52.416Z,101810.63
2023-01-20T16:26:23.398Z,101802.09
2023-01-20T16:28:51.604Z,101798.72
2023-01-20T16:31:20.201Z,101805.94
2023-01-20T16:33:48.230Z,101808.53
2023-01-20T16:36:19.465Z,101808.75
2023-01-20T16:38:48.257Z,101810.66
2023-01-20T16:41:21.104Z,101805.41
2023-01-20T16:43:49.598Z,101801.09
2023-01-20T16:46:20.162Z,101815.56
2023-01-20T16:48:48.675Z,101816.50
2023-01-20T16:51:22.479Z,101812.03
2023-01-20T16:53:51.065Z,101814.84
2023-01-20T16:56:22.775Z,101819.53
2023-01-20T16:58:52.289Z,101821.44
2023-01-20T17:01:24.772Z,101832.38
2023-01-20T17:03:54.802Z,101831.75
2023-01-20T17:06:26.056Z,101835.38
2023-01-20T17:08:58.772Z,101846.09
2023-01-20T17:11:29.074Z,101849.53
2023-01-20T17:13:58.098Z,101853.63
2023-01-20T17:16:27.312Z,101858.50
2023-01-20T17:18:58.474Z,101866.00
2023-01-20T17:21:30.426Z,101864.75
2023-01-20T17:24:00.973Z,101868.72
2023-01-20T17:26:29.850Z,101878.00
2023-01-20T17:29:02.158Z,101881.94
2023-01-20T17:31:32.036Z,101885.97
2023-01-20T17:34:00.431Z,101882.81
2023-01-20T17:36:34.451Z,101885.91
2023-01-20T17:39:03.427Z,101887.16
2023-01-20T17:41:31.897Z,101888.31
2023-01-20T17:43:59.958Z,101898.38
2023-01-20T17:46:29.697Z,101892.56
2023-01-20T17:48:58.511Z,101904.41
2023-01-20T17:51:30.138Z,101902.97
2023-01-20T17:53:59.272Z,101891.75
2023-01-20T17:56:28.605Z,101914.00
2023-01-20T17:58:56.785Z,101906.38
2023-01-20T18:01:26.974Z,101918.13
2023-01-20T18:03:58.266Z,101910.34
2023-01-20T18:06:28.174Z,101920.25
2023-01-20T18:08:59.297Z,101927.63
2023-01-20T18:11:30.346Z,101933.13
2023-01-20T18:14:00.719Z,101933.34
2023-01-20T18:16:30.356Z,101935.22
2023-01-20T18:18:59.680Z,101930.94
2023-01-20T18:21:30.128Z,101924.91
2023-01-20T18:24:00.681Z,101939.22
2023-01-20T18:26:30.842Z,101943.09
2023-01-20T18:29:00.996Z,101952.09
2023-01-20T18:31:30.379Z,101960.19
2023-01-20T18:34:00.183Z,101962.16
2023-01-20T18:36:30.400Z,101963.38
2023-01-20T18:39:02.001Z,101970.50
2023-01-20T18:41:34.040Z,101971.50
2023-01-20T18:44:04.132Z,101977.88
2023-01-20T18:46:33.472Z,101980.69
2023-01-20T18:49:02.548Z,101988.06
2023-01-20T18:51:34.730Z,101989.16
2023-01-20T18:54:06.246Z,101997.13
2023-01-20T18:56:35.060Z,101995.44
2023-01-20T18:59:04.705Z,102000.75
2023-01-20T19:01:40.114Z,102002.59
2023-01-20T19:04:15.637Z,102013.94
2023-01-20T19:06:46.340Z,102018.34
2023-01-20T19:09:17.533Z,102017.66
2023-01-20T19:11:45.690Z,102011.59
2023-01-20T19:14:16.052Z,102018.88
2023-01-20T19:17:01.911Z,102019.97
2023-01-20T19:19:30.205Z,102025.38
2023-01-20T19:21:58.462Z,102023.66
2023-01-20T19:24:29.152Z,102034.38
2023-01-20T19:27:00.461Z,102036.22
2023-01-20T19:29:29.549Z,102046.84
2023-01-20T19:31:57.814Z,102046.16
2023-01-20T19:34:27.338Z,102061.22
2023-01-20T19:36:55.461Z,102057.94
2023-01-20T19:39:24.844Z,102070.44
2023-01-20T19:41:59.304Z,102072.28
2023-01-20T19:44:27.999Z,102063.41
2023-01-20T19:46:57.097Z,102072.22
2023-01-20T19:49:25.152Z,102062.44
2023-01-20T19:51:53.123Z,102069.34
2023-01-20T19:54:21.416Z,102073.69
2023-01-20T19:56:49.445Z,102071.94
2023-01-20T19:59:18.976Z,102075.56
2023-01-20T20:01:47.056Z,102070.34
2023-01-20T20:04:15.082Z,102081.84
2023-01-20T20:06:47.768Z,102082.75
2023-01-20T20:09:17.932Z,102098.78
2023-01-20T20:11:46.118Z,102097.97
2023-01-20T20:14:15.721Z,102109.63
2023-01-20T20:16:45.609Z,102106.19
2023-01-20T20:19:16.310Z,102115.97
2023-01-20T20:21:45.039Z,102115.06
2023-01-20T20:24:15.017Z,102114.09
2023-01-20T20:26:44.715Z,102124.63
2023-01-20T20:29:14.786Z,102122.03
2023-01-20T20:31:44.350Z,102121.16
2023-01-20T20:34:15.334Z,102120.38
2023-01-20T20:36:43.429Z,102124.75
2023-01-20T20:39:14.574Z,102127.47
2023-01-20T20:41:43.461Z,102129.19
2023-01-20T20:44:12.076Z,102141.50
2023-01-20T20:46:40.639Z,102139.81
2023-01-20T20:49:14.533Z,102142.59
2023-01-20T20:51:42.577Z,102145.19
2023-01-20T20:54:13.104Z,102146.03
2023-01-20T20:56:41.259Z,102150.56
2023-01-20T20:59:12.730Z,102156.09
2023-01-20T21:01:41.307Z,102156.31
2023-01-20T21:04:11.607Z,102161.75
2023-01-20T21:06:39.628Z,102169.78
2023-01-20T21:09:07.622Z,102166.44
2023-01-20T21:11:37.905Z,102169.94
2023-01-20T21:14:07.336Z,102179.66
2023-01-20T21:16:35.888Z,102180.34
2023-01-20T21:19:04.641Z,102188.19
2023-01-20T21:21:34.111Z,102191.69
2023-01-20T21:24:02.069Z,102184.72
2023-01-20T21:26:30.949Z,102193.63
2023-01-20T21:29:02.152Z,102195.47
2023-01-20T21:31:31.480Z,102191.03
2023-01-20T21:34:01.160Z,102200.72
2023-01-20T21:36:31.262Z,102201.69
2023-01-20T21:39:01.179Z,102220.16
2023-01-20T21:41:29.284Z,102217.53
2023-01-20T21:44:14.730Z,102225.38
2023-01-20T21:46:43.071Z,102227.91
2023-01-20T21:49:28.606Z,102226.84
2023-01-20T21:52:13.918Z,102227.66
2023-01-20T21:54:45.622Z,102232.97
2023-01-20T21:57:14.434Z,102229.31
2023-01-20T21:59:42.939Z,102231.81
2023-01-20T22:02:13.304Z,102226.38
2023-01-20T22:04:41.549Z,102230.72
2023-01-20T22:07:10.465Z,102229.09
2023-01-20T22:09:38.731Z,102223.22
2023-01-20T22:12:09.788Z,102231.53
2023-01-20T22:14:38.042Z,102238.78
2023-01-20T22:17:06.460Z,102236.34
2023-01-20T22:19:35.187Z,102223.38
2023-01-20T22:22:03.770Z,102226.25
2023-01-20T22:24:31.927Z,102228.25
2023-01-20T22:27:00.443Z,102225.75
2023-01-20T22:29:29.918Z,102227.69
2023-01-20T22:31:59.410Z,102234.97
2023-01-20T22:34:27.822Z,102237.75
2023-01-20T22:36:57.085Z,102234.31
2023-01-20T22:39:25.194Z,102238.84
2023-01-20T22:41:53.238Z,102244.16
2023-01-20T22:44:21.225Z,102250.44
2023-01-20T22:46:50.850Z,102239.16
2023-01-20T22:49:19.048Z,102247.16
2023-01-20T22:51:47.134Z,102256.94
2023-01-20T22:54:15.033Z,102251.84
2023-01-20T22:56:42.977Z,102247.63
2023-01-20T22:59:13.688Z,102267.91
2023-01-20T23:01:41.799Z,102259.31
2023-01-20T23:04:11.770Z,102262.00
2023-01-20T23:06:39.986Z,102265.53
2023-01-20T23:09:10.207Z,102268.28
2023-01-20T23:11:40.146Z,102274.53
2023-01-20T23:14:13.114Z,102275.47
2023-01-20T23:16:41.596Z,102278.19
2023-01-20T23:19:11.698Z,102287.06
2023-01-20T23:21:39.829Z,102277.50
2023-01-20T23:24:09.104Z,102295.25
2023-01-20T23:26:37.250Z,102299.66
2023-01-20T23:29:05.447Z,102299.78
2023-01-20T23:31:35.597Z,102302.44
2023-01-20T23:34:03.713Z,102295.44
2023-01-20T23:36:33.374Z,102303.38
2023-01-20T23:39:01.353Z,102303.38
2023-01-20T23:41:29.350Z,102308.75
2023-01-20T23:43:57.298Z,102314.09
2023-01-20T23:46:25.277Z,102317.78
2023-01-20T23:48:53.263Z,102311.72
2023-01-20T23:51:21.501Z,102319.78
2023-01-20T23:53:51.026Z,102316.28
2023-01-20T23:56:21.022Z,102324.22
2023-01-20T23:58:49.355Z,102315.47
